Time;durP1;ratioP1;P1;durP2;ratioP2;P2;SDS_P1;SDS_P2;PMS_P1;PMS_P2;Temp;Humidity;BMP_temperature;BMP_pressure;BME280_temperature;BME280_humidity;BME280_pressure;Samples;Min_cycle;Max_cycle;Signal;HPM_P1;HPM_P2
2023/04/24 00:00:05;;;;;;;;;;;18.90;57.30;;;;;;6147094;29;19914;-73
2023/04/24 00:03:06;;;;;;;;;;;18.90;57.30;;;;;;6147268;29;20459;-73
2023/04/24 00:06:10;;;;;;;;;;;18.90;57.30;;;;;;6146795;29;19922;-73
2023/04/24 00:09:10;;;;;;;;;;;18.90;57.30;;;;;;6148367;29;19931;-73
2023/04/24 00:12:11;;;;;;;;;;;18.90;57.30;;;;;;6148138;29;19981;-73
2023/04/24 00:15:12;;;;;;;;;;;19.00;57.40;;;;;;6130759;29;19911;-73
2023/04/24 00:18:12;;;;;;;;;;;19.00;57.40;;;;;;6147699;29;19973;-73
2023/04/24 00:21:13;;;;;;;;;;;19.00;57.40;;;;;;6147925;29;19915;-73
2023/04/24 00:24:14;;;;;;;;;;;18.90;57.30;;;;;;6146418;29;20471;-73
2023/04/24 00:27:14;;;;;;;;;;;18.90;57.30;;;;;;6147827;29;19918;-73
2023/04/24 00:30:15;;;;;;;;;;;18.90;57.30;;;;;;6147700;29;20420;-72
2023/04/24 00:33:15;;;;;;;;;;;18.90;57.30;;;;;;6142895;29;19918;-73
2023/04/24 00:36:16;;;;;;;;;;;18.90;57.30;;;;;;6146176;28;19911;-73
2023/04/24 00:39:20;;;;;;;;;;;19.00;57.40;;;;;;6147820;29;19911;-73
2023/04/24 00:42:20;;;;;;;;;;;18.90;57.30;;;;;;6164763;28;20341;-73
2023/04/24 00:45:21;;;;;;;;;;;19.00;57.40;;;;;;6152480;29;19917;-72
2023/04/24 00:48:22;;;;;;;;;;;19.00;57.40;;;;;;6152164;29;20325;-72
2023/04/24 00:51:24;;;;;;;;;;;18.90;57.30;;;;;;6167338;28;19910;-73
2023/04/24 00:54:25;;;;;;;;;;;18.90;57.30;;;;;;6135189;29;19917;-73
2023/04/24 00:57:26;;;;;;;;;;;18.90;57.30;;;;;;6152394;29;19910;-72
2023/04/24 01:00:26;;;;;;;;;;;18.90;57.30;;;;;;6152183;29;19917;-73
2023/04/24 01:03:28;;;;;;;;;;;18.90;57.30;;;;;;6151996;29;19910;-73
2023/04/24 01:06:30;;;;;;;;;;;18.90;57.30;;;;;;6152109;29;20001;-73
2023/04/24 01:09:32;;;;;;;;;;;18.90;57.30;;;;;;6151792;28;19926;-73
2023/04/24 01:12:32;;;;;;;;;;;18.90;57.30;;;;;;6152069;29;19911;-73
2023/04/24 01:15:33;;;;;;;;;;;18.90;57.30;;;;;;6151859;29;19918;-73
2023/04/24 01:18:33;;;;;;;;;;;19.00;57.40;;;;;;6151717;29;19979;-72
2023/04/24 01:21:36;;;;;;;;;;;18.90;57.30;;;;;;6151439;29;19925;-73
2023/04/24 01:24:37;;;;;;;;;;;18.90;57.30;;;;;;6134255;29;19962;-73
2023/04/24 01:27:38;;;;;;;;;;;19.00;57.40;;;;;;6151243;29;19911;-73
2023/04/24 01:30:39;;;;;;;;;;;19.00;57.40;;;;;;6134188;29;19921;-72
2023/04/24 01:33:41;;;;;;;;;;;18.90;57.30;;;;;;6146893;29;19911;-73
2023/04/24 01:36:41;;;;;;;;;;;19.00;57.40;;;;;;6151033;28;19915;-73
2023/04/24 01:39:43;;;;;;;;;;;18.90;57.40;;;;;;6150781;29;19911;-73
2023/04/24 01:42:43;;;;;;;;;;;18.90;57.30;;;;;;6151161;29;20400;-73
2023/04/24 01:45:44;;;;;;;;;;;18.90;57.30;;;;;;6150510;28;19910;-73
2023/04/24 01:48:45;;;;;;;;;;;18.90;57.30;;;;;;6150853;29;20337;-72
2023/04/24 01:51:47;;;;;;;;;;;19.00;57.40;;;;;;6150735;29;19918;-73
2023/04/24 01:54:47;;;;;;;;;;;18.90;57.30;;;;;;6150366;28;20061;-73
2023/04/24 01:57:48;;;;;;;;;;;18.90;57.40;;;;;;6150881;29;19911;-72
2023/04/24 02:00:50;;;;;;;;;;;18.90;57.30;;;;;;6133711;29;19915;-73
2023/04/24 02:03:50;;;;;;;;;;;19.00;57.40;;;;;;6165592;28;19911;-73
2023/04/24 02:06:51;;;;;;;;;;;18.90;57.30;;;;;;6150899;29;19969;-73
2023/04/24 02:09:52;;;;;;;;;;;19.00;57.40;;;;;;6150421;28;20424;-73
2023/04/24 02:12:52;;;;;;;;;;;18.90;57.30;;;;;;6144790;29;19911;-73
2023/04/24 02:15:53;;;;;;;;;;;18.90;57.30;;;;;;6149475;28;19994;-73
2023/04/24 02:18:53;;;;;;;;;;;18.90;57.40;;;;;;6149209;29;20575;-73
2023/04/24 02:21:54;;;;;;;;;;;18.90;57.40;;;;;;6150291;29;20422;-72
2023/04/24 02:24:55;;;;;;;;;;;18.90;57.30;;;;;;6133014;29;19911;-73
2023/04/24 02:27:56;;;;;;;;;;;18.90;57.30;;;;;;6149073;29;19910;-73
2023/04/24 02:30:56;;;;;;;;;;;18.90;57.30;;;;;;6151125;29;20524;-74
2023/04/24 02:33:57;;;;;;;;;;;19.00;57.40;;;;;;6133066;29;19917;-73
2023/04/24 02:36:57;;;;;;;;;;;18.90;58.00;;;;;;6150361;29;19914;-72
2023/04/24 02:39:58;;;;;;;;;;;19.00;57.50;;;;;;6132546;29;19923;-72
2023/04/24 02:42:59;;;;;;;;;;;19.00;57.50;;;;;;6150454;29;19914;-72
2023/04/24 02:45:59;;;;;;;;;;;18.90;57.40;;;;;;6150167;29;19910;-73
2023/04/24 02:49:00;;;;;;;;;;;19.00;57.50;;;;;;6150689;29;19914;-72
2023/04/24 02:52:01;;;;;;;;;;;18.90;57.30;;;;;;6149863;29;19946;-72
2023/04/24 02:55:02;;;;;;;;;;;18.90;57.30;;;;;;6149774;29;19993;-72
2023/04/24 02:58:02;;;;;;;;;;;19.00;57.40;;;;;;6125652;29;20006;-73
2023/04/24 03:01:03;;;;;;;;;;;18.90;57.30;;;;;;6132262;29;19914;-73
2023/04/24 03:04:04;;;;;;;;;;;18.90;57.30;;;;;;6149794;28;19917;-73
2023/04/24 03:07:05;;;;;;;;;;;18.90;57.40;;;;;;6149644;29;20361;-74
2023/04/24 03:10:06;;;;;;;;;;;18.90;57.40;;;;;;6164189;28;19929;-74
2023/04/24 03:13:07;;;;;;;;;;;18.90;57.40;;;;;;6132189;29;19950;-73
2023/04/24 03:16:07;;;;;;;;;;;19.00;57.50;;;;;;6149269;29;20234;-74
2023/04/24 03:19:08;;;;;;;;;;;19.00;57.40;;;;;;6149456;29;19910;-74
2023/04/24 03:22:09;;;;;;;;;;;18.90;57.40;;;;;;6156092;28;19921;-74
2023/04/24 03:25:09;;;;;;;;;;;18.90;57.40;;;;;;6132162;28;19918;-74
2023/04/24 03:28:10;;;;;;;;;;;19.00;57.50;;;;;;6132167;29;19917;-74
2023/04/24 03:31:10;;;;;;;;;;;19.00;57.50;;;;;;6149006;29;19914;-74
2023/04/24 03:34:11;;;;;;;;;;;19.00;57.50;;;;;;6131869;29;19921;-73
2023/04/24 03:37:11;;;;;;;;;;;18.90;57.40;;;;;;6131778;29;19918;-74
2023/04/24 03:40:12;;;;;;;;;;;19.00;57.50;;;;;;6132060;29;19911;-73
2023/04/24 03:43:13;;;;;;;;;;;19.00;57.50;;;;;;6148695;29;19918;-73
2023/04/24 03:46:13;;;;;;;;;;;19.00;57.50;;;;;;6131586;29;19911;-74
2023/04/24 03:49:14;;;;;;;;;;;19.00;57.50;;;;;;6149082;29;19918;-73
2023/04/24 03:52:15;;;;;;;;;;;19.00;57.50;;;;;;6148676;29;19914;-74
2023/04/24 03:55:15;;;;;;;;;;;19.00;57.50;;;;;;6148784;29;19918;-74
2023/04/24 03:58:17;;;;;;;;;;;19.00;57.50;;;;;;6148444;29;19910;-74
2023/04/24 04:01:20;;;;;;;;;;;19.00;57.50;;;;;;6131071;29;19921;-74
2023/04/24 04:04:20;;;;;;;;;;;19.00;57.50;;;;;;6148417;29;19922;-74
2023/04/24 04:07:21;;;;;;;;;;;19.00;57.50;;;;;;6131067;29;19974;-74
2023/04/24 04:10:22;;;;;;;;;;;19.00;57.50;;;;;;6148451;29;19926;-73
2023/04/24 04:13:23;;;;;;;;;;;19.00;57.50;;;;;;6148227;29;19918;-73
2023/04/24 04:16:24;;;;;;;;;;;19.00;57.50;;;;;;6130488;29;19910;-73
2023/04/24 04:19:25;;;;;;;;;;;19.00;57.50;;;;;;6147971;29;19910;-74
2023/04/24 04:22:25;;;;;;;;;;;19.00;57.50;;;;;;6148196;29;19914;-74
2023/04/24 04:25:26;;;;;;;;;;;19.00;57.50;;;;;;6163034;28;19910;-74
2023/04/24 04:28:27;;;;;;;;;;;19.00;57.50;;;;;;6148129;29;19950;-74
2023/04/24 04:31:27;;;;;;;;;;;19.00;57.50;;;;;;6130587;29;20337;-74
2023/04/24 04:34:29;;;;;;;;;;;19.00;57.50;;;;;;6162809;28;19910;-74
2023/04/24 04:37:31;;;;;;;;;;;19.00;57.50;;;;;;6148367;29;20332;-74
2023/04/24 04:40:31;;;;;;;;;;;19.00;57.50;;;;;;6148617;29;19970;-74
2023/04/24 04:43:34;;;;;;;;;;;19.00;57.50;;;;;;6145237;29;19911;-69
2023/04/24 04:46:36;;;;;;;;;;;19.00;57.50;;;;;;6137624;28;19921;-72
2023/04/24 04:49:38;;;;;;;;;;;19.00;57.50;;;;;;6145414;29;19921;-73
2023/04/24 04:52:38;;;;;;;;;;;19.00;57.50;;;;;;6145575;29;20577;-74
2023/04/24 04:55:39;;;;;;;;;;;19.00;57.50;;;;;;6141620;28;19957;-73
2023/04/24 04:58:40;;;;;;;;;;;19.00;57.50;;;;;;6142690;29;19961;-74
2023/04/24 05:01:40;;;;;;;;;;;19.00;57.50;;;;;;6146917;28;19928;-73
2023/04/24 05:04:41;;;;;;;;;;;19.00;57.50;;;;;;6169126;28;19926;-73
2023/04/24 05:07:41;;;;;;;;;;;19.00;57.50;;;;;;6141576;28;19915;-74
2023/04/24 05:10:42;;;;;;;;;;;19.00;57.50;;;;;;6121810;29;19933;-74
2023/04/24 05:13:42;;;;;;;;;;;19.00;57.50;;;;;;6143723;29;19911;-73
2023/04/24 05:16:43;;;;;;;;;;;19.00;57.50;;;;;;6119279;29;19911;-73
2023/04/24 05:19:43;;;;;;;;;;;19.00;57.50;;;;;;6144094;29;19910;-74
2023/04/24 05:22:44;;;;;;;;;;;19.00;57.50;;;;;;6143651;29;19921;-73
2023/04/24 05:25:46;;;;;;;;;;;19.00;57.50;;;;;;6145230;29;19918;-72
2023/04/24 05:28:46;;;;;;;;;;;19.00;57.50;;;;;;6147864;28;19910;-73
2023/04/24 05:31:47;;;;;;;;;;;19.00;57.50;;;;;;6144637;29;20014;-73
2023/04/24 05:34:47;;;;;;;;;;;19.00;58.20;;;;;;6149928;28;19911;-73
2023/04/24 05:37:48;;;;;;;;;;;19.00;57.50;;;;;;6148266;29;19910;-74
2023/04/24 05:40:49;;;;;;;;;;;19.00;57.50;;;;;;6147614;29;19914;-73
2023/04/24 05:43:49;;;;;;;;;;;19.00;57.50;;;;;;6148930;29;19976;-74
2023/04/24 05:46:50;;;;;;;;;;;19.00;57.50;;;;;;6138320;29;20374;-72
2023/04/24 05:49:51;;;;;;;;;;;19.00;57.50;;;;;;6146654;29;19915;-74
2023/04/24 05:52:51;;;;;;;;;;;19.00;57.50;;;;;;6131538;29;19918;-74
2023/04/24 05:55:52;;;;;;;;;;;19.00;57.50;;;;;;6142515;28;19926;-74
2023/04/24 05:58:52;;;;;;;;;;;19.00;57.50;;;;;;6147582;29;19921;-73
2023/04/24 06:01:53;;;;;;;;;;;19.00;57.50;;;;;;6144054;29;19914;-73
2023/04/24 06:04:53;;;;;;;;;;;19.00;57.50;;;;;;6134036;28;19910;-74
2023/04/24 06:07:54;;;;;;;;;;;19.00;57.50;;;;;;6149422;28;20326;-74
2023/04/24 06:10:55;;;;;;;;;;;19.00;57.50;;;;;;6150090;29;19914;-74
2023/04/24 06:13:55;;;;;;;;;;;19.00;57.50;;;;;;6149656;29;19933;-72
2023/04/24 06:16:56;;;;;;;;;;;19.00;57.50;;;;;;6151458;29;19914;-71
2023/04/24 06:19:57;;;;;;;;;;;19.00;57.50;;;;;;6151699;29;19914;-71
2023/04/24 06:22:57;;;;;;;;;;;19.00;57.50;;;;;;6151608;29;19922;-71
2023/04/24 06:25:58;;;;;;;;;;;19.00;57.50;;;;;;6150629;29;19911;-72
2023/04/24 06:29:00;;;;;;;;;;;19.00;57.50;;;;;;6150302;29;19914;-71
2023/04/24 06:32:01;;;;;;;;;;;19.00;57.50;;;;;;6151714;29;20289;-72
2023/04/24 06:35:01;;;;;;;;;;;19.00;57.50;;;;;;6166257;28;19914;-72
2023/04/24 06:38:02;;;;;;;;;;;19.00;57.50;;;;;;6150645;29;19961;-72
2023/04/24 06:41:04;;;;;;;;;;;19.00;57.50;;;;;;6132751;29;20022;-71
2023/04/24 06:44:05;;;;;;;;;;;19.00;57.50;;;;;;6151337;29;20409;-72
2023/04/24 06:47:09;;;;;;;;;;;19.00;57.50;;;;;;6126767;29;19911;-72
2023/04/24 06:50:11;;;;;;;;;;;19.00;57.50;;;;;;6151059;29;19910;-72
2023/04/24 06:53:14;;;;;;;;;;;19.00;57.50;;;;;;6150694;29;19915;-72
2023/04/24 06:56:14;;;;;;;;;;;19.00;57.50;;;;;;6151102;28;19962;-72
2023/04/24 06:59:15;;;;;;;;;;;19.00;57.50;;;;;;6150907;29;19914;-72
2023/04/24 07:02:16;;;;;;;;;;;19.00;57.50;;;;;;6151101;29;20008;-71
2023/04/24 07:05:19;;;;;;;;;;;19.00;57.50;;;;;;6134155;28;19911;-72
2023/04/24 07:08:21;;;;;;;;;;;19.00;57.50;;;;;;6149664;29;20021;-72
2023/04/24 07:11:23;;;;;;;;;;;19.00;57.50;;;;;;6150752;29;19994;-72
2023/04/24 07:14:24;;;;;;;;;;;19.00;57.60;;;;;;6133492;29;19911;-71
2023/04/24 07:17:24;;;;;;;;;;;19.00;57.50;;;;;;6133082;29;19910;-72
2023/04/24 07:20:25;;;;;;;;;;;19.00;57.50;;;;;;6150645;29;19910;-72
2023/04/24 07:23:26;;;;;;;;;;;19.00;57.50;;;;;;6132414;29;19914;-72
2023/04/24 07:26:28;;;;;;;;;;;19.00;57.50;;;;;;6133158;29;19917;-72
2023/04/24 07:29:28;;;;;;;;;;;19.00;57.50;;;;;;6133218;29;19914;-72
2023/04/24 07:32:29;;;;;;;;;;;19.00;57.50;;;;;;6133454;29;20366;-72
2023/04/24 07:35:30;;;;;;;;;;;19.00;57.50;;;;;;6150326;28;19914;-72
2023/04/24 07:38:30;;;;;;;;;;;19.00;57.50;;;;;;6150317;29;19914;-73
2023/04/24 07:41:31;;;;;;;;;;;19.00;57.50;;;;;;6150306;29;20009;-71
2023/04/24 07:44:32;;;;;;;;;;;19.00;57.50;;;;;;6150072;29;19911;-72
2023/04/24 07:47:33;;;;;;;;;;;19.00;57.50;;;;;;6150201;29;19910;-72
2023/04/24 07:50:34;;;;;;;;;;;19.00;57.50;;;;;;6146923;28;19966;-72
2023/04/24 07:53:35;;;;;;;;;;;19.00;57.50;;;;;;6124643;29;19959;-72
2023/04/24 07:56:38;;;;;;;;;;;19.00;57.50;;;;;;6126154;29;19946;-72
2023/04/24 07:59:39;;;;;;;;;;;19.00;57.50;;;;;;6126211;29;19961;-73
2023/04/24 08:02:39;;;;;;;;;;;19.00;57.50;;;;;;6124509;29;19919;-72
2023/04/24 08:05:41;;;;;;;;;;;19.00;57.50;;;;;;6126218;29;20315;-72
2023/04/24 08:08:42;;;;;;;;;;;19.00;57.50;;;;;;6125700;29;19923;-72
2023/04/24 08:11:43;;;;;;;;;;;19.00;57.50;;;;;;6109186;29;19918;-72
2023/04/24 08:14:43;;;;;;;;;;;19.00;57.50;;;;;;6125976;29;19911;-72
2023/04/24 08:17:46;;;;;;;;;;;19.00;57.60;;;;;;6137369;29;20149;-73
2023/04/24 08:20:46;;;;;;;;;;;19.00;57.60;;;;;;6132241;29;19933;-72
2023/04/24 08:23:47;;;;;;;;;;;19.00;57.50;;;;;;6148083;29;19918;-72
2023/04/24 08:26:50;;;;;;;;;;;19.00;57.50;;;;;;6149385;29;20305;-72
2023/04/24 08:29:50;;;;;;;;;;;19.00;57.50;;;;;;6132336;29;20005;-72
2023/04/24 08:32:51;;;;;;;;;;;19.00;57.50;;;;;;6124749;29;19925;-72
2023/04/24 08:35:52;;;;;;;;;;;19.00;57.50;;;;;;6131451;29;20055;-72
2023/04/24 08:38:53;;;;;;;;;;;19.00;57.50;;;;;;6147776;29;19917;-73
2023/04/24 08:41:54;;;;;;;;;;;19.00;57.50;;;;;;6131138;29;20396;-72
2023/04/24 08:44:55;;;;;;;;;;;19.00;57.60;;;;;;6148011;29;20374;-72
2023/04/24 08:47:57;;;;;;;;;;;19.00;57.50;;;;;;6163354;28;19914;-72
2023/04/24 08:50:58;;;;;;;;;;;19.00;57.50;;;;;;6130982;29;19911;-72
2023/04/24 08:53:59;;;;;;;;;;;19.10;57.60;;;;;;6131403;29;20381;-71
2023/04/24 08:57:03;;;;;;;;;;;19.10;57.60;;;;;;6132712;29;20390;-72
2023/04/24 09:00:04;;;;;;;;;;;19.00;57.40;;;;;;6149329;29;19997;-70
2023/04/24 09:03:05;;;;;;;;;;;19.00;57.30;;;;;;6150838;28;19915;-71
2023/04/24 09:06:07;;;;;;;;;;;19.00;57.40;;;;;;6136464;29;19918;-71
2023/04/24 09:09:11;;;;;;;;;;;19.00;57.40;;;;;;6153411;29;19973;-72
2023/04/24 09:12:12;;;;;;;;;;;19.00;57.40;;;;;;6136300;29;19960;-72
2023/04/24 09:15:13;;;;;;;;;;;19.00;57.40;;;;;;6153522;28;19953;-71
2023/04/24 09:18:13;;;;;;;;;;;19.00;57.50;;;;;;6153446;29;19910;-71
2023/04/24 09:21:14;;;;;;;;;;;19.00;57.50;;;;;;6136131;29;19969;-72
2023/04/24 09:24:17;;;;;;;;;;;19.00;57.40;;;;;;6153322;29;19911;-71
2023/04/24 09:27:18;;;;;;;;;;;19.00;57.50;;;;;;6135890;29;19918;-71
2023/04/24 09:30:21;;;;;;;;;;;19.00;57.50;;;;;;6152844;29;19993;-72
2023/04/24 09:33:22;;;;;;;;;;;19.00;57.50;;;;;;6152011;29;19914;-71
2023/04/24 09:36:30;;;;;;;;;;;19.00;57.50;;;;;;6167753;28;19938;-72
2023/04/24 09:39:30;;;;;;;;;;;19.00;57.50;;;;;;6153215;29;19910;-72
2023/04/24 09:42:31;;;;;;;;;;;19.00;57.50;;;;;;6135344;29;19919;-72
2023/04/24 09:45:36;;;;;;;;;;;19.00;57.50;;;;;;6135719;28;19915;-71
2023/04/24 09:48:37;;;;;;;;;;;19.00;57.50;;;;;;6134852;29;19933;-72
2023/04/24 09:51:38;;;;;;;;;;;19.00;57.50;;;;;;6152585;29;20653;-71
2023/04/24 09:54:39;;;;;;;;;;;19.00;57.50;;;;;;6152591;29;20009;-71
2023/04/24 09:58:04;;;;;;;;;;;19.00;57.50;;;;;;6152456;29;19910;-71
2023/04/24 10:01:05;;;;;;;;;;;19.00;57.50;;;;;;6151133;29;20407;-73
2023/04/24 10:04:06;;;;;;;;;;;19.00;57.50;;;;;;6143819;29;19938;-71
2023/04/24 10:07:09;;;;;;;;;;;19.00;57.50;;;;;;6134887;29;19993;-71
2023/04/24 10:10:09;;;;;;;;;;;19.00;57.50;;;;;;6128213;29;20386;-71
2023/04/24 10:13:10;;;;;;;;;;;19.00;57.40;;;;;;6152009;28;19921;-71
2023/04/24 10:16:11;;;;;;;;;;;19.00;57.50;;;;;;6141374;28;19923;-71
2023/04/24 10:19:13;;;;;;;;;;;19.00;57.40;;;;;;6128120;29;19958;-71
2023/04/24 10:22:15;;;;;;;;;;;19.00;57.40;;;;;;6127990;29;19919;-71
2023/04/24 10:25:16;;;;;;;;;;;19.00;57.50;;;;;;6110950;29;19911;-71
2023/04/24 10:28:17;;;;;;;;;;;19.00;57.50;;;;;;6087564;29;19918;-72
2023/04/24 10:31:18;;;;;;;;;;;19.00;57.50;;;;;;6087354;29;19919;-71
2023/04/24 10:34:20;;;;;;;;;;;19.00;57.40;;;;;;6103127;29;20279;-71
2023/04/24 10:37:21;;;;;;;;;;;19.00;57.40;;;;;;6104196;29;19970;-71
2023/04/24 10:40:33;;;;;;;;;;;19.00;57.40;;;;;;6104264;29;19911;-72
2023/04/24 10:43:33;;;;;;;;;;;19.00;57.50;;;;;;6102758;29;19915;-71
2023/04/24 10:46:34;;;;;;;;;;;19.00;57.50;;;;;;6087191;29;19922;-72
2023/04/24 10:49:35;;;;;;;;;;;19.00;57.50;;;;;;6103814;29;19911;-71
2023/04/24 10:52:51;;;;;;;;;;;19.00;57.50;;;;;;6101927;29;19911;-70
2023/04/24 10:55:56;;;;;;;;;;;19.00;57.50;;;;;;6110406;29;19942;-71
2023/04/24 10:58:57;;;;;;;;;;;19.00;57.50;;;;;;6109308;29;19918;-72
2023/04/24 11:01:58;;;;;;;;;;;19.00;57.50;;;;;;6126610;29;20370;-72
2023/04/24 11:05:02;;;;;;;;;;;19.00;57.50;;;;;;6110149;29;19918;-71
2023/04/24 11:08:12;;;;;;;;;;;19.00;57.50;;;;;;6115618;29;20006;-71
2023/04/24 11:11:16;;;;;;;;;;;19.00;57.50;;;;;;6124882;29;19950;-72
2023/04/24 11:14:17;;;;;;;;;;;19.00;57.50;;;;;;6118792;29;20415;-72
2023/04/24 11:17:34;;;;;;;;;;;19.00;57.50;;;;;;6126113;29;20079;-72
2023/04/24 11:20:34;;;;;;;;;;;19.00;57.60;;;;;;6124393;29;19911;-72
2023/04/24 11:23:39;;;;;;;;;;;19.00;57.60;;;;;;6124311;29;19915;-72
2023/04/24 11:26:40;;;;;;;;;;;19.00;57.60;;;;;;6124976;29;19949;-72
2023/04/24 11:29:43;;;;;;;;;;;19.00;57.60;;;;;;6124166;29;19922;-72
2023/04/24 11:32:47;;;;;;;;;;;19.00;57.60;;;;;;6124906;29;19942;-71
2023/04/24 11:35:47;;;;;;;;;;;19.00;57.60;;;;;;6122772;29;19942;-70
2023/04/24 11:38:48;;;;;;;;;;;19.00;57.70;;;;;;6108592;29;20498;-73
2023/04/24 11:41:50;;;;;;;;;;;19.10;57.70;;;;;;6125416;29;19914;-72
2023/04/24 11:44:52;;;;;;;;;;;19.10;57.50;;;;;;6108034;29;19911;-73
2023/04/24 11:47:53;;;;;;;;;;;19.10;57.50;;;;;;6123979;29;19911;-72
2023/04/24 11:50:53;;;;;;;;;;;19.20;57.50;;;;;;6122158;29;19911;-73
2023/04/24 11:53:55;;;;;;;;;;;19.20;57.50;;;;;;6108115;29;19918;-72
2023/04/24 11:56:56;;;;;;;;;;;19.10;57.50;;;;;;6124912;29;19958;-71
2023/04/24 11:59:56;;;;;;;;;;;19.10;57.40;;;;;;6124021;29;19915;-71
2023/04/24 12:03:07;;;;;;;;;;;19.10;57.40;;;;;;6139864;29;20333;-71
2023/04/24 12:06:09;;;;;;;;;;;19.10;57.40;;;;;;6125773;29;19942;-71
2023/04/24 12:09:09;;;;;;;;;;;19.10;57.40;;;;;;6122418;29;20349;-71
2023/04/24 12:12:10;;;;;;;;;;;19.10;57.40;;;;;;6131296;29;19911;-71
2023/04/24 12:15:12;;;;;;;;;;;19.10;57.50;;;;;;6124718;29;20398;-71
2023/04/24 12:18:13;;;;;;;;;;;19.10;57.50;;;;;;6148606;29;19911;-70
2023/04/24 12:21:14;;;;;;;;;;;19.10;57.50;;;;;;6148501;29;19915;-71
2023/04/24 12:24:15;;;;;;;;;;;19.10;57.50;;;;;;6144900;29;20058;-71
2023/04/24 12:27:20;;;;;;;;;;;19.10;57.50;;;;;;6148480;28;19915;-72
2023/04/24 12:30:21;;;;;;;;;;;19.10;57.50;;;;;;6147543;29;20005;-71
2023/04/24 12:33:22;;;;;;;;;;;19.10;57.50;;;;;;6130974;29;19956;-71
2023/04/24 12:36:22;;;;;;;;;;;19.10;57.60;;;;;;6147804;28;19910;-70
2023/04/24 12:39:26;;;;;;;;;;;19.10;57.50;;;;;;6150129;29;19910;-71
2023/04/24 12:42:30;;;;;;;;;;;19.10;57.60;;;;;;6153063;29;20009;-71
2023/04/24 12:45:31;;;;;;;;;;;19.10;57.50;;;;;;6151412;29;19915;-71
2023/04/24 12:48:32;;;;;;;;;;;19.10;57.50;;;;;;6112181;29;19966;-71
2023/04/24 12:51:32;;;;;;;;;;;19.10;57.60;;;;;;6132047;29;19917;-71
2023/04/24 12:54:33;;;;;;;;;;;19.10;57.50;;;;;;6152594;29;20330;-71
2023/04/24 12:57:34;;;;;;;;;;;19.10;57.50;;;;;;6151771;28;19911;-71
2023/04/24 13:00:35;;;;;;;;;;;19.10;57.60;;;;;;6134582;29;20416;-71
2023/04/24 13:03:36;;;;;;;;;;;19.10;57.50;;;;;;6148176;29;20293;-71
2023/04/24 13:06:36;;;;;;;;;;;19.10;57.60;;;;;;6152247;29;19953;-71
2023/04/24 13:09:37;;;;;;;;;;;19.10;57.60;;;;;;6151090;28;20008;-71
2023/04/24 13:12:38;;;;;;;;;;;19.10;57.60;;;;;;6150959;29;19911;-71
2023/04/24 13:15:39;;;;;;;;;;;19.10;57.60;;;;;;6134934;29;19910;-69
2023/04/24 13:18:39;;;;;;;;;;;19.10;57.60;;;;;;6152050;29;20337;-71
2023/04/24 13:21:40;;;;;;;;;;;19.00;57.60;;;;;;6150541;29;19915;-71
2023/04/24 13:24:41;;;;;;;;;;;19.10;57.60;;;;;;6151735;29;19910;-71
2023/04/24 13:27:42;;;;;;;;;;;19.00;57.60;;;;;;6127091;29;19967;-71
2023/04/24 13:30:43;;;;;;;;;;;19.00;57.60;;;;;;6131957;29;19911;-70
2023/04/24 13:33:43;;;;;;;;;;;19.00;57.60;;;;;;6131986;29;19917;-71
2023/04/24 13:36:44;;;;;;;;;;;19.00;57.60;;;;;;6149619;28;19954;-71
2023/04/24 13:39:44;;;;;;;;;;;19.00;57.60;;;;;;6151219;29;19910;-71
2023/04/24 13:42:45;;;;;;;;;;;19.10;57.70;;;;;;6148581;28;19914;-71
2023/04/24 13:45:46;;;;;;;;;;;19.00;57.60;;;;;;6151459;28;19910;-70
2023/04/24 13:48:46;;;;;;;;;;;19.00;57.60;;;;;;6133296;29;19918;-70
2023/04/24 13:51:47;;;;;;;;;;;19.00;57.60;;;;;;6133084;29;19969;-71
2023/04/24 13:54:48;;;;;;;;;;;19.00;57.60;;;;;;6151486;29;19911;-71
2023/04/24 13:57:48;;;;;;;;;;;19.00;57.60;;;;;;6138239;29;19915;-72
2023/04/24 14:00:49;;;;;;;;;;;19.00;57.60;;;;;;6146619;29;19914;-71
2023/04/24 14:03:53;;;;;;;;;;;19.00;57.60;;;;;;6147000;29;20144;-71
2023/04/24 14:06:54;;;;;;;;;;;19.00;57.60;;;;;;6150110;28;19910;-72
2023/04/24 14:09:55;;;;;;;;;;;19.00;57.60;;;;;;6133086;29;20453;-72
2023/04/24 14:12:56;;;;;;;;;;;19.10;58.00;;;;;;6133441;29;19911;-72
2023/04/24 14:15:56;;;;;;;;;;;19.10;57.80;;;;;;6150916;29;19926;-70
2023/04/24 14:18:57;;;;;;;;;;;19.10;57.80;;;;;;6165342;28;19911;-70
2023/04/24 14:21:58;;;;;;;;;;;19.10;57.70;;;;;;6132850;29;19915;-70
2023/04/24 14:24:58;;;;;;;;;;;19.10;57.70;;;;;;6139474;29;19918;-70
2023/04/24 14:27:59;;;;;;;;;;;19.10;57.60;;;;;;6124124;29;19919;-70
2023/04/24 14:31:00;;;;;;;;;;;19.10;57.60;;;;;;6148140;29;19936;-70
2023/04/24 14:34:01;;;;;;;;;;;19.10;57.60;;;;;;6150376;29;19910;-71
2023/04/24 14:37:02;;;;;;;;;;;19.10;57.60;;;;;;6145363;29;19921;-70
2023/04/24 14:40:04;;;;;;;;;;;19.10;57.60;;;;;;6150052;29;19911;-71
2023/04/24 14:43:04;;;;;;;;;;;19.10;57.60;;;;;;6150377;29;20013;-70
2023/04/24 14:46:05;;;;;;;;;;;19.10;57.60;;;;;;6148901;29;19917;-70
2023/04/24 14:49:09;;;;;;;;;;;19.10;57.60;;;;;;6127646;29;20389;-69
2023/04/24 14:52:19;;;;;;;;;;;19.10;57.60;;;;;;6130625;29;19917;-70
2023/04/24 14:55:37;;;;;;;;;;;19.10;57.60;;;;;;6149824;29;20018;-70
2023/04/24 14:58:38;;;;;;;;;;;19.10;57.60;;;;;;6149185;29;19957;-70
2023/04/24 15:01:39;;;;;;;;;;;19.10;57.70;;;;;;6151796;28;19914;-70
2023/04/24 15:04:41;;;;;;;;;;;19.10;57.60;;;;;;6147225;28;20001;-69
2023/04/24 15:07:41;;;;;;;;;;;19.10;57.70;;;;;;6147571;29;19918;-70
2023/04/24 15:10:42;;;;;;;;;;;19.10;57.70;;;;;;6131771;29;20561;-70
2023/04/24 15:13:45;;;;;;;;;;;19.10;57.70;;;;;;6149132;29;19911;-70
2023/04/24 15:16:45;;;;;;;;;;;19.10;57.70;;;;;;6149448;29;19910;-70
2023/04/24 15:19:46;;;;;;;;;;;19.10;57.70;;;;;;6147792;29;19973;-70
2023/04/24 15:22:47;;;;;;;;;;;19.10;57.70;;;;;;6149065;29;19922;-69
2023/04/24 15:25:48;;;;;;;;;;;19.10;57.70;;;;;;6147940;28;20293;-70
2023/04/24 15:28:49;;;;;;;;;;;19.10;57.70;;;;;;6131746;29;20009;-69
2023/04/24 15:31:50;;;;;;;;;;;19.00;57.60;;;;;;6149204;29;20779;-69
2023/04/24 15:34:50;;;;;;;;;;;19.10;57.70;;;;;;6132107;29;20374;-69
2023/04/24 15:37:51;;;;;;;;;;;19.10;57.70;;;;;;6143678;29;19914;-71
2023/04/24 15:40:51;;;;;;;;;;;19.10;57.70;;;;;;6146252;29;19922;-70
2023/04/24 15:43:52;;;;;;;;;;;19.10;57.70;;;;;;6144130;29;19997;-70
2023/04/24 15:46:53;;;;;;;;;;;19.10;57.70;;;;;;6143299;28;19933;-70
2023/04/24 15:49:53;;;;;;;;;;;19.10;57.70;;;;;;6138696;29;19997;-70
2023/04/24 15:52:54;;;;;;;;;;;19.00;57.70;;;;;;6144950;29;19997;-70
2023/04/24 15:55:57;;;;;;;;;;;19.00;57.70;;;;;;6116880;29;20952;-69
2023/04/24 15:58:59;;;;;;;;;;;19.10;57.70;;;;;;6131787;29;19911;-69
2023/04/24 16:02:00;;;;;;;;;;;19.10;57.70;;;;;;6115113;29;19915;-69
2023/04/24 16:05:00;;;;;;;;;;;19.00;57.70;;;;;;6147461;29;19942;-70
2023/04/24 16:08:01;;;;;;;;;;;19.00;57.70;;;;;;6148897;28;19914;-70
2023/04/24 16:11:02;;;;;;;;;;;19.10;57.70;;;;;;6148015;28;19958;-70
2023/04/24 16:14:02;;;;;;;;;;;19.00;57.70;;;;;;6123376;29;19911;-70
2023/04/24 16:17:03;;;;;;;;;;;19.10;57.70;;;;;;6146231;28;20741;-70
2023/04/24 16:20:04;;;;;;;;;;;19.00;57.70;;;;;;6145730;29;19910;-70
2023/04/24 16:23:05;;;;;;;;;;;19.00;57.70;;;;;;6144867;29;19965;-70
2023/04/24 16:26:06;;;;;;;;;;;19.00;57.70;;;;;;6129363;29;20017;-71
2023/04/24 16:29:06;;;;;;;;;;;19.00;57.70;;;;;;6158135;28;19911;-70
2023/04/24 16:32:08;;;;;;;;;;;19.10;57.70;;;;;;6146116;29;19910;-71
2023/04/24 16:35:08;;;;;;;;;;;19.00;57.70;;;;;;6121962;29;20445;-70
2023/04/24 16:38:10;;;;;;;;;;;19.10;57.70;;;;;;6145237;29;19965;-70
2023/04/24 16:41:10;;;;;;;;;;;19.00;57.70;;;;;;6128178;29;20428;-70
2023/04/24 16:44:12;;;;;;;;;;;19.00;57.70;;;;;;6129044;29;19915;-69
2023/04/24 16:47:13;;;;;;;;;;;19.10;57.70;;;;;;6145758;29;19910;-70
2023/04/24 16:50:14;;;;;;;;;;;19.10;57.80;;;;;;6159815;28;19918;-71
2023/04/24 16:53:15;;;;;;;;;;;19.10;57.70;;;;;;6128346;29;19921;-68
2023/04/24 16:56:16;;;;;;;;;;;19.00;57.70;;;;;;6145914;29;20322;-70
2023/04/24 16:59:17;;;;;;;;;;;19.10;57.80;;;;;;6145201;29;20779;-70
2023/04/24 17:02:18;;;;;;;;;;;19.00;57.70;;;;;;6144643;29;19919;-70
2023/04/24 17:05:21;;;;;;;;;;;19.10;57.80;;;;;;6145860;29;19964;-70
2023/04/24 17:08:22;;;;;;;;;;;19.10;57.70;;;;;;6144237;29;20685;-69
2023/04/24 17:11:23;;;;;;;;;;;19.00;57.70;;;;;;6140502;29;19918;-69
2023/04/24 17:14:25;;;;;;;;;;;19.00;57.70;;;;;;6143654;29;19961;-69
2023/04/24 17:17:26;;;;;;;;;;;19.10;57.80;;;;;;6145267;28;20362;-69
2023/04/24 17:20:27;;;;;;;;;;;19.00;57.70;;;;;;6127060;29;19918;-70
2023/04/24 17:23:27;;;;;;;;;;;19.00;57.70;;;;;;6141991;28;19926;-69
2023/04/24 17:26:30;;;;;;;;;;;19.10;57.80;;;;;;6131890;29;19911;-69
2023/04/24 17:29:31;;;;;;;;;;;19.10;57.80;;;;;;6131312;29;20022;-69
2023/04/24 17:32:32;;;;;;;;;;;19.00;57.70;;;;;;6149505;29;19914;-69